sensor_id;sensor_type;location;lat;lon;timestamp;P1;durP1;ratioP1;P2;durP2;ratioP2
34200;SDS011;20469;55.638;37.670;2024-03-08T00:00:14;7.07;;;4.15;;
34200;SDS011;20469;55.638;37.670;2024-03-08T00:02:45;6.32;;;4.10;;
34200;SDS011;20469;55.638;37.670;2024-03-08T00:05:14;7.25;;;4.30;;
34200;SDS011;20469;55.638;37.670;2024-03-08T00:07:42;7.13;;;4.60;;
34200;SDS011;20469;55.638;37.670;2024-03-08T00:10:12;5.88;;;4.63;;
34200;SDS011;20469;55.638;37.670;2024-03-08T00:12:43;7.22;;;4.20;;
34200;SDS011;20469;55.638;37.670;2024-03-08T00:15:14;6.85;;;4.75;;
34200;SDS011;20469;55.638;37.670;2024-03-08T00:17:45;9.02;;;4.50;;
34200;SDS011;20469;55.638;37.670;2024-03-08T00:20:14;6.93;;;4.70;;
34200;SDS011;20469;55.638;37.670;2024-03-08T00:22:46;8.77;;;4.60;;
34200;SDS011;20469;55.638;37.670;2024-03-08T00:25:14;7.25;;;4.28;;
34200;SDS011;20469;55.638;37.670;2024-03-08T00:27:43;6.57;;;4.88;;
34200;SDS011;20469;55.638;37.670;2024-03-08T00:30:11;6.93;;;4.90;;
34200;SDS011;20469;55.638;37.670;2024-03-08T00:32:42;11.13;;;6.30;;
34200;SDS011;20469;55.638;37.670;2024-03-08T00:35:10;8.70;;;6.05;;
34200;SDS011;20469;55.638;37.670;2024-03-08T00:37:39;9.25;;;4.78;;
34200;SDS011;20469;55.638;37.670;2024-03-08T00:40:10;8.88;;;4.60;;
34200;SDS011;20469;55.638;37.670;2024-03-08T00:42:38;6.95;;;4.70;;
34200;SDS011;20469;55.638;37.670;2024-03-08T00:45:07;6.35;;;4.50;;
34200;SDS011;20469;55.638;37.670;2024-03-08T00:47:37;6.70;;;4.68;;
34200;SDS011;20469;55.638;37.670;2024-03-08T00:50:05;8.68;;;4.53;;
34200;SDS011;20469;55.638;37.670;2024-03-08T00:52:35;7.28;;;4.82;;
34200;SDS011;20469;55.638;37.670;2024-03-08T00:55:03;6.45;;;4.50;;
34200;SDS011;20469;55.638;37.670;2024-03-08T00:57:31;6.32;;;4.13;;
34200;SDS011;20469;55.638;37.670;2024-03-08T01:00:02;7.50;;;4.80;;
34200;SDS011;20469;55.638;37.670;2024-03-08T01:02:31;5.57;;;4.28;;
34200;SDS011;20469;55.638;37.670;2024-03-08T01:05:03;6.15;;;4.47;;
34200;SDS011;20469;55.638;37.670;2024-03-08T01:07:34;6.03;;;3.80;;
34200;SDS011;20469;55.638;37.670;2024-03-08T01:10:03;5.10;;;3.58;;
34200;SDS011;20469;55.638;37.670;2024-03-08T01:12:31;4.65;;;4.00;;
34200;SDS011;20469;55.638;37.670;2024-03-08T01:14:59;4.93;;;3.53;;
34200;SDS011;20469;55.638;37.670;2024-03-08T01:17:27;5.05;;;3.75;;
34200;SDS011;20469;55.638;37.670;2024-03-08T01:19:55;4.95;;;3.50;;
34200;SDS011;20469;55.638;37.670;2024-03-08T01:22:23;5.38;;;3.80;;
34200;SDS011;20469;55.638;37.670;2024-03-08T01:24:51;5.28;;;3.50;;
34200;SDS011;20469;55.638;37.670;2024-03-08T01:27:18;4.97;;;3.40;;
34200;SDS011;20469;55.638;37.670;2024-03-08T01:29:46;4.07;;;3.40;;
34200;SDS011;20469;55.638;37.670;2024-03-08T01:32:14;4.22;;;3.55;;
34200;SDS011;20469;55.638;37.670;2024-03-08T01:34:42;9.25;;;6.07;;
34200;SDS011;20469;55.638;37.670;2024-03-08T01:37:11;8.35;;;5.13;;
34200;SDS011;20469;55.638;37.670;2024-03-08T01:39:41;5.53;;;3.80;;
34200;SDS011;20469;55.638;37.670;2024-03-08T01:42:09;4.95;;;3.88;;
34200;SDS011;20469;55.638;37.670;2024-03-08T01:44:39;5.50;;;3.75;;
34200;SDS011;20469;55.638;37.670;2024-03-08T01:47:07;4.63;;;3.60;;
34200;SDS011;20469;55.638;37.670;2024-03-08T01:49:35;4.10;;;3.38;;
34200;SDS011;20469;55.638;37.670;2024-03-08T01:52:03;5.22;;;3.67;;
34200;SDS011;20469;55.638;37.670;2024-03-08T01:54:31;5.10;;;3.55;;
34200;SDS011;20469;55.638;37.670;2024-03-08T01:56:59;5.15;;;4.00;;
34200;SDS011;20469;55.638;37.670;2024-03-08T01:59:27;6.32;;;4.07;;
34200;SDS011;20469;55.638;37.670;2024-03-08T02:01:55;5.45;;;3.67;;
34200;SDS011;20469;55.638;37.670;2024-03-08T02:04:23;5.75;;;3.97;;
34200;SDS011;20469;55.638;37.670;2024-03-08T02:06:51;4.93;;;3.70;;
34200;SDS011;20469;55.638;37.670;2024-03-08T02:09:19;5.57;;;3.75;;
34200;SDS011;20469;55.638;37.670;2024-03-08T02:11:47;4.60;;;3.83;;
34200;SDS011;20469;55.638;37.670;2024-03-08T02:14:15;5.32;;;3.60;;
34200;SDS011;20469;55.638;37.670;2024-03-08T02:16:43;6.07;;;3.80;;
34200;SDS011;20469;55.638;37.670;2024-03-08T02:19:11;5.55;;;4.20;;
34200;SDS011;20469;55.638;37.670;2024-03-08T02:21:39;8.77;;;4.35;;
34200;SDS011;20469;55.638;37.670;2024-03-08T02:24:07;5.82;;;3.83;;
34200;SDS011;20469;55.638;37.670;2024-03-08T02:26:35;5.18;;;3.92;;
34200;SDS011;20469;55.638;37.670;2024-03-08T02:29:04;5.68;;;4.15;;
34200;SDS011;20469;55.638;37.670;2024-03-08T02:31:31;4.82;;;3.80;;
34200;SDS011;20469;55.638;37.670;2024-03-08T02:33:59;6.20;;;4.10;;
34200;SDS011;20469;55.638;37.670;2024-03-08T02:36:27;6.57;;;4.22;;
34200;SDS011;20469;55.638;37.670;2024-03-08T02:38:55;5.05;;;4.10;;
34200;SDS011;20469;55.638;37.670;2024-03-08T02:41:23;4.70;;;4.00;;
34200;SDS011;20469;55.638;37.670;2024-03-08T02:43:51;5.20;;;3.58;;
34200;SDS011;20469;55.638;37.670;2024-03-08T02:46:19;5.40;;;4.13;;
34200;SDS011;20469;55.638;37.670;2024-03-08T02:48:47;6.18;;;4.35;;
34200;SDS011;20469;55.638;37.670;2024-03-08T02:51:15;7.15;;;3.63;;
34200;SDS011;20469;55.638;37.670;2024-03-08T02:53:43;6.28;;;4.03;;
34200;SDS011;20469;55.638;37.670;2024-03-08T02:56:10;6.45;;;3.90;;
34200;SDS011;20469;55.638;37.670;2024-03-08T02:58:39;5.93;;;4.10;;
34200;SDS011;20469;55.638;37.670;2024-03-08T03:01:07;6.68;;;4.22;;
34200;SDS011;20469;55.638;37.670;2024-03-08T03:03:37;5.75;;;3.80;;
34200;SDS011;20469;55.638;37.670;2024-03-08T03:06:04;5.37;;;3.93;;
34200;SDS011;20469;55.638;37.670;2024-03-08T03:08:34;7.40;;;4.40;;
34200;SDS011;20469;55.638;37.670;2024-03-08T03:11:02;6.10;;;4.10;;
34200;SDS011;20469;55.638;37.670;2024-03-08T03:13:30;7.07;;;4.38;;
34200;SDS011;20469;55.638;37.670;2024-03-08T03:15:58;6.47;;;4.43;;
34200;SDS011;20469;55.638;37.670;2024-03-08T03:18:28;5.78;;;4.15;;
34200;SDS011;20469;55.638;37.670;2024-03-08T03:20:55;5.60;;;3.95;;
34200;SDS011;20469;55.638;37.670;2024-03-08T03:23:23;7.05;;;4.47;;
34200;SDS011;20469;55.638;37.670;2024-03-08T03:25:53;6.50;;;4.32;;
34200;SDS011;20469;55.638;37.670;2024-03-08T03:28:24;5.95;;;4.07;;
34200;SDS011;20469;55.638;37.670;2024-03-08T03:30:51;7.35;;;4.60;;
34200;SDS011;20469;55.638;37.670;2024-03-08T03:33:19;8.38;;;4.65;;
34200;SDS011;20469;55.638;37.670;2024-03-08T03:35:49;6.97;;;4.70;;
34200;SDS011;20469;55.638;37.670;2024-03-08T03:38:18;9.73;;;4.40;;
34200;SDS011;20469;55.638;37.670;2024-03-08T03:40:50;8.18;;;4.57;;
34200;SDS011;20469;55.638;37.670;2024-03-08T03:43:19;6.53;;;5.00;;
34200;SDS011;20469;55.638;37.670;2024-03-08T03:45:46;6.17;;;4.70;;
34200;SDS011;20469;55.638;37.670;2024-03-08T03:48:15;7.17;;;4.67;;
34200;SDS011;20469;55.638;37.670;2024-03-08T03:50:43;8.17;;;5.00;;
34200;SDS011;20469;55.638;37.670;2024-03-08T03:53:11;7.70;;;5.07;;
34200;SDS011;20469;55.638;37.670;2024-03-08T03:55:40;5.97;;;4.60;;
34200;SDS011;20469;55.638;37.670;2024-03-08T03:58:08;8.33;;;4.87;;
34200;SDS011;20469;55.638;37.670;2024-03-08T04:00:38;10.65;;;5.43;;
34200;SDS011;20469;55.638;37.670;2024-03-08T04:03:07;9.70;;;5.20;;
34200;SDS011;20469;55.638;37.670;2024-03-08T04:05:36;8.10;;;5.30;;
34200;SDS011;20469;55.638;37.670;2024-03-08T04:08:04;6.93;;;5.45;;
34200;SDS011;20469;55.638;37.670;2024-03-08T04:10:33;7.80;;;5.18;;
34200;SDS011;20469;55.638;37.670;2024-03-08T04:13:01;7.70;;;5.53;;
34200;SDS011;20469;55.638;37.670;2024-03-08T04:15:30;8.02;;;5.35;;
34200;SDS011;20469;55.638;37.670;2024-03-08T04:17:58;7.88;;;5.13;;
34200;SDS011;20469;55.638;37.670;2024-03-08T04:20:27;8.23;;;5.32;;
34200;SDS011;20469;55.638;37.670;2024-03-08T04:22:55;7.00;;;5.10;;
34200;SDS011;20469;55.638;37.670;2024-03-08T04:25:23;6.43;;;4.93;;
34200;SDS011;20469;55.638;37.670;2024-03-08T04:27:51;7.47;;;5.30;;
34200;SDS011;20469;55.638;37.670;2024-03-08T04:30:19;8.93;;;5.53;;
34200;SDS011;20469;55.638;37.670;2024-03-08T04:32:48;7.10;;;5.60;;
34200;SDS011;20469;55.638;37.670;2024-03-08T04:35:16;5.90;;;5.10;;
34200;SDS011;20469;55.638;37.670;2024-03-08T04:37:44;7.55;;;5.75;;
34200;SDS011;20469;55.638;37.670;2024-03-08T04:40:12;6.72;;;5.18;;
34200;SDS011;20469;55.638;37.670;2024-03-08T04:42:39;7.13;;;5.20;;
34200;SDS011;20469;55.638;37.670;2024-03-08T04:45:08;7.70;;;5.55;;
34200;SDS011;20469;55.638;37.670;2024-03-08T04:47:38;7.83;;;5.83;;
34200;SDS011;20469;55.638;37.670;2024-03-08T04:50:06;7.13;;;5.70;;
34200;SDS011;20469;55.638;37.670;2024-03-08T04:52:35;6.75;;;5.45;;
34200;SDS011;20469;55.638;37.670;2024-03-08T04:55:03;8.82;;;5.97;;
34200;SDS011;20469;55.638;37.670;2024-03-08T04:57:32;8.30;;;6.00;;
34200;SDS011;20469;55.638;37.670;2024-03-08T05:00:00;8.10;;;5.83;;
34200;SDS011;20469;55.638;37.670;2024-03-08T05:02:29;6.40;;;5.17;;
34200;SDS011;20469;55.638;37.670;2024-03-08T05:04:57;10.17;;;5.70;;
34200;SDS011;20469;55.638;37.670;2024-03-08T05:07:25;8.03;;;5.40;;
34200;SDS011;20469;55.638;37.670;2024-03-08T05:09:52;9.07;;;5.57;;
34200;SDS011;20469;55.638;37.670;2024-03-08T05:12:20;10.75;;;7.20;;
34200;SDS011;20469;55.638;37.670;2024-03-08T05:14:49;6.97;;;5.35;;
34200;SDS011;20469;55.638;37.670;2024-03-08T05:17:17;9.30;;;5.80;;
34200;SDS011;20469;55.638;37.670;2024-03-08T05:19:45;7.57;;;5.20;;
34200;SDS011;20469;55.638;37.670;2024-03-08T05:22:13;8.50;;;5.93;;
34200;SDS011;20469;55.638;37.670;2024-03-08T05:24:41;9.80;;;6.25;;
34200;SDS011;20469;55.638;37.670;2024-03-08T05:27:09;11.00;;;6.18;;
34200;SDS011;20469;55.638;37.670;2024-03-08T05:29:37;8.40;;;6.13;;
34200;SDS011;20469;55.638;37.670;2024-03-08T05:32:05;8.80;;;5.35;;
34200;SDS011;20469;55.638;37.670;2024-03-08T05:34:33;9.02;;;5.90;;
34200;SDS011;20469;55.638;37.670;2024-03-08T05:37:01;9.75;;;6.28;;
34200;SDS011;20469;55.638;37.670;2024-03-08T05:39:29;9.50;;;6.65;;
34200;SDS011;20469;55.638;37.670;2024-03-08T05:41:57;9.57;;;6.70;;
34200;SDS011;20469;55.638;37.670;2024-03-08T05:44:25;8.48;;;5.72;;
34200;SDS011;20469;55.638;37.670;2024-03-08T05:46:55;9.90;;;6.25;;
34200;SDS011;20469;55.638;37.670;2024-03-08T05:49:23;10.05;;;6.05;;
34200;SDS011;20469;55.638;37.670;2024-03-08T05:51:51;9.63;;;6.32;;
34200;SDS011;20469;55.638;37.670;2024-03-08T05:54:21;9.32;;;6.10;;
34200;SDS011;20469;55.638;37.670;2024-03-08T05:56:51;8.40;;;6.03;;
34200;SDS011;20469;55.638;37.670;2024-03-08T05:59:20;9.13;;;5.72;;
34200;SDS011;20469;55.638;37.670;2024-03-08T06:01:50;11.60;;;6.57;;
34200;SDS011;20469;55.638;37.670;2024-03-08T06:04:18;8.35;;;5.60;;
34200;SDS011;20469;55.638;37.670;2024-03-08T06:06:46;10.20;;;5.90;;
34200;SDS011;20469;55.638;37.670;2024-03-08T06:09:18;8.63;;;6.10;;
34200;SDS011;20469;55.638;37.670;2024-03-08T06:11:51;8.82;;;6.35;;
34200;SDS011;20469;55.638;37.670;2024-03-08T06:14:21;8.88;;;6.32;;
34200;SDS011;20469;55.638;37.670;2024-03-08T06:16:50;8.68;;;5.72;;
34200;SDS011;20469;55.638;37.670;2024-03-08T06:19:18;9.82;;;6.50;;
34200;SDS011;20469;55.638;37.670;2024-03-08T06:21:47;10.55;;;6.63;;
34200;SDS011;20469;55.638;37.670;2024-03-08T06:24:15;8.70;;;5.72;;
34200;SDS011;20469;55.638;37.670;2024-03-08T06:26:45;9.07;;;5.82;;
34200;SDS011;20469;55.638;37.670;2024-03-08T06:29:14;9.65;;;6.70;;
34200;SDS011;20469;55.638;37.670;2024-03-08T06:31:42;8.30;;;6.13;;
34200;SDS011;20469;55.638;37.670;2024-03-08T06:34:11;9.93;;;6.15;;
34200;SDS011;20469;55.638;37.670;2024-03-08T06:36:39;9.38;;;6.28;;
34200;SDS011;20469;55.638;37.670;2024-03-08T06:39:06;8.90;;;6.13;;
34200;SDS011;20469;55.638;37.670;2024-03-08T06:41:37;9.75;;;5.78;;
34200;SDS011;20469;55.638;37.670;2024-03-08T06:44:06;10.75;;;6.78;;
34200;SDS011;20469;55.638;37.670;2024-03-08T06:46:35;7.93;;;5.82;;
34200;SDS011;20469;55.638;37.670;2024-03-08T06:49:03;10.88;;;6.32;;
34200;SDS011;20469;55.638;37.670;2024-03-08T06:51:34;10.38;;;6.38;;
34200;SDS011;20469;55.638;37.670;2024-03-08T06:54:02;7.50;;;6.10;;
34200;SDS011;20469;55.638;37.670;2024-03-08T06:56:36;8.82;;;6.05;;
34200;SDS011;20469;55.638;37.670;2024-03-08T06:59:04;9.38;;;6.03;;
34200;SDS011;20469;55.638;37.670;2024-03-08T07:01:33;9.82;;;6.22;;
34200;SDS011;20469;55.638;37.670;2024-03-08T07:04:03;8.38;;;6.43;;
34200;SDS011;20469;55.638;37.670;2024-03-08T07:06:34;10.45;;;6.78;;
34200;SDS011;20469;55.638;37.670;2024-03-08T07:09:04;9.50;;;7.00;;
34200;SDS011;20469;55.638;37.670;2024-03-08T07:11:32;11.98;;;8.18;;
34200;SDS011;20469;55.638;37.670;2024-03-08T07:14:01;9.57;;;6.63;;
34200;SDS011;20469;55.638;37.670;2024-03-08T07:16:32;9.15;;;6.30;;
34200;SDS011;20469;55.638;37.670;2024-03-08T07:19:01;10.20;;;6.90;;
34200;SDS011;20469;55.638;37.670;2024-03-08T07:21:30;7.93;;;6.00;;
34200;SDS011;20469;55.638;37.670;2024-03-08T07:23:58;8.27;;;6.30;;
34200;SDS011;20469;55.638;37.670;2024-03-08T07:26:25;11.02;;;6.18;;
34200;SDS011;20469;55.638;37.670;2024-03-08T07:28:54;12.13;;;6.25;;
34200;SDS011;20469;55.638;37.670;2024-03-08T07:31:22;8.93;;;6.55;;
34200;SDS011;20469;55.638;37.670;2024-03-08T07:33:53;7.88;;;6.25;;
34200;SDS011;20469;55.638;37.670;2024-03-08T07:36:21;9.45;;;6.03;;
34200;SDS011;20469;55.638;37.670;2024-03-08T07:38:52;9.80;;;6.47;;
34200;SDS011;20469;55.638;37.670;2024-03-08T07:41:20;7.95;;;6.45;;
34200;SDS011;20469;55.638;37.670;2024-03-08T07:43:49;11.57;;;6.97;;
34200;SDS011;20469;55.638;37.670;2024-03-08T07:46:17;10.73;;;6.55;;
34200;SDS011;20469;55.638;37.670;2024-03-08T07:48:45;9.10;;;6.38;;
34200;SDS011;20469;55.638;37.670;2024-03-08T07:51:17;9.32;;;6.50;;
34200;SDS011;20469;55.638;37.670;2024-03-08T07:53:45;9.40;;;6.63;;
34200;SDS011;20469;55.638;37.670;2024-03-08T07:56:12;8.00;;;6.60;;
34200;SDS011;20469;55.638;37.670;2024-03-08T07:58:43;8.90;;;6.90;;
34200;SDS011;20469;55.638;37.670;2024-03-08T08:01:17;11.15;;;7.28;;
34200;SDS011;20469;55.638;37.670;2024-03-08T08:03:45;9.80;;;6.50;;
34200;SDS011;20469;55.638;37.670;2024-03-08T08:06:15;9.32;;;7.15;;
34200;SDS011;20469;55.638;37.670;2024-03-08T08:08:43;10.95;;;7.45;;
34200;SDS011;20469;55.638;37.670;2024-03-08T08:11:11;9.55;;;7.22;;
34200;SDS011;20469;55.638;37.670;2024-03-08T08:13:39;9.82;;;7.35;;
34200;SDS011;20469;55.638;37.670;2024-03-08T08:16:09;15.32;;;7.30;;
34200;SDS011;20469;55.638;37.670;2024-03-08T08:18:37;13.35;;;6.53;;
34200;SDS011;20469;55.638;37.670;2024-03-08T08:21:06;13.10;;;7.18;;
34200;SDS011;20469;55.638;37.670;2024-03-08T08:23:33;9.50;;;7.13;;
34200;SDS011;20469;55.638;37.670;2024-03-08T08:26:01;11.02;;;7.25;;
34200;SDS011;20469;55.638;37.670;2024-03-08T08:28:31;8.63;;;6.85;;
34200;SDS011;20469;55.638;37.670;2024-03-08T08:30:59;9.70;;;6.95;;
34200;SDS011;20469;55.638;37.670;2024-03-08T08:33:27;10.13;;;7.10;;
34200;SDS011;20469;55.638;37.670;2024-03-08T08:35:55;12.05;;;7.63;;
34200;SDS011;20469;55.638;37.670;2024-03-08T08:38:23;10.40;;;7.45;;
34200;SDS011;20469;55.638;37.670;2024-03-08T08:40:51;9.68;;;7.00;;
34200;SDS011;20469;55.638;37.670;2024-03-08T08:43:19;10.50;;;7.57;;
34200;SDS011;20469;55.638;37.670;2024-03-08T08:45:50;11.00;;;7.78;;
34200;SDS011;20469;55.638;37.670;2024-03-08T08:48:21;11.57;;;7.85;;
34200;SDS011;20469;55.638;37.670;2024-03-08T08:50:50;8.85;;;7.20;;
34200;SDS011;20469;55.638;37.670;2024-03-08T08:53:19;9.02;;;7.43;;
34200;SDS011;20469;55.638;37.670;2024-03-08T08:55:46;11.82;;;7.85;;
34200;SDS011;20469;55.638;37.670;2024-03-08T08:58:14;13.50;;;8.23;;
34200;SDS011;20469;55.638;37.670;2024-03-08T09:00:42;10.90;;;7.55;;
34200;SDS011;20469;55.638;37.670;2024-03-08T09:03:11;11.30;;;8.20;;
34200;SDS011;20469;55.638;37.670;2024-03-08T09:05:39;11.40;;;7.97;;
34200;SDS011;20469;55.638;37.670;2024-03-08T09:08:11;12.55;;;8.38;;
34200;SDS011;20469;55.638;37.670;2024-03-08T09:10:40;11.48;;;7.80;;
34200;SDS011;20469;55.638;37.670;2024-03-08T09:13:08;10.05;;;7.28;;
34200;SDS011;20469;55.638;37.670;2024-03-08T09:15:59;12.30;;;7.47;;
34200;SDS011;20469;55.638;37.670;2024-03-08T09:18:27;10.50;;;7.82;;
34200;SDS011;20469;55.638;37.670;2024-03-08T09:20:56;11.48;;;7.93;;
34200;SDS011;20469;55.638;37.670;2024-03-08T09:23:24;9.88;;;8.02;;
34200;SDS011;20469;55.638;37.670;2024-03-08T09:25:53;13.35;;;8.15;;
34200;SDS011;20469;55.638;37.670;2024-03-08T09:28:21;12.13;;;8.77;;
34200;SDS011;20469;55.638;37.670;2024-03-08T09:30:49;10.10;;;8.10;;
34200;SDS011;20469;55.638;37.670;2024-03-08T09:33:25;12.43;;;8.15;;
34200;SDS011;20469;55.638;37.670;2024-03-08T09:35:55;11.15;;;8.18;;
34200;SDS011;20469;55.638;37.670;2024-03-08T09:38:26;11.82;;;8.25;;
34200;SDS011;20469;55.638;37.670;2024-03-08T09:40:54;14.20;;;8.48;;
34200;SDS011;20469;55.638;37.670;2024-03-08T09:43:23;14.70;;;8.25;;
34200;SDS011;20469;55.638;37.670;2024-03-08T09:45:51;12.15;;;8.38;;
34200;SDS011;20469;55.638;37.670;2024-03-08T09:48:20;13.57;;;8.88;;
34200;SDS011;20469;55.638;37.670;2024-03-08T09:50:49;11.35;;;8.25;;
34200;SDS011;20469;55.638;37.670;2024-03-08T09:53:17;12.35;;;8.82;;
34200;SDS011;20469;55.638;37.670;2024-03-08T09:55:45;14.45;;;8.38;;
34200;SDS011;20469;55.638;37.670;2024-03-08T09:58:13;13.30;;;8.95;;
34200;SDS011;20469;55.638;37.670;2024-03-08T10:00:54;13.15;;;9.45;;
34200;SDS011;20469;55.638;37.670;2024-03-08T10:03:24;11.38;;;8.95;;
34200;SDS011;20469;55.638;37.670;2024-03-08T10:05:56;13.85;;;9.57;;
34200;SDS011;20469;55.638;37.670;2024-03-08T10:08:27;13.65;;;8.52;;
34200;SDS011;20469;55.638;37.670;2024-03-08T10:10:56;11.30;;;8.93;;
34200;SDS011;20469;55.638;37.670;2024-03-08T10:13:25;11.63;;;8.57;;
34200;SDS011;20469;55.638;37.670;2024-03-08T10:16:00;12.15;;;8.93;;
34200;SDS011;20469;55.638;37.670;2024-03-08T10:18:28;10.32;;;8.15;;
34200;SDS011;20469;55.638;37.670;2024-03-08T10:21:03;14.32;;;9.10;;
34200;SDS011;20469;55.638;37.670;2024-03-08T10:23:31;11.98;;;8.52;;
34200;SDS011;20469;55.638;37.670;2024-03-08T10:26:13;11.63;;;8.40;;
34200;SDS011;20469;55.638;37.670;2024-03-08T10:28:46;11.43;;;8.57;;
34200;SDS011;20469;55.638;37.670;2024-03-08T10:31:16;13.02;;;8.52;;
34200;SDS011;20469;55.638;37.670;2024-03-08T10:33:45;11.10;;;8.65;;
34200;SDS011;20469;55.638;37.670;2024-03-08T10:36:13;10.95;;;8.52;;
34200;SDS011;20469;55.638;37.670;2024-03-08T10:38:42;13.88;;;8.52;;
34200;SDS011;20469;55.638;37.670;2024-03-08T10:41:14;11.52;;;8.48;;
34200;SDS011;20469;55.638;37.670;2024-03-08T10:49:18;10.70;;;8.27;;
34200;SDS011;20469;55.638;37.670;2024-03-08T10:51:49;11.98;;;8.35;;
34200;SDS011;20469;55.638;37.670;2024-03-08T10:54:18;12.18;;;8.57;;
34200;SDS011;20469;55.638;37.670;2024-03-08T10:56:49;12.07;;;8.27;;
34200;SDS011;20469;55.638;37.670;2024-03-08T10:59:18;12.18;;;8.15;;
34200;SDS011;20469;55.638;37.670;2024-03-08T11:01:51;10.60;;;8.30;;
34200;SDS011;20469;55.638;37.670;2024-03-08T11:04:19;11.50;;;8.20;;
34200;SDS011;20469;55.638;37.670;2024-03-08T11:06:52;12.25;;;8.60;;
34200;SDS011;20469;55.638;37.670;2024-03-08T11:09:30;11.50;;;7.97;;
34200;SDS011;20469;55.638;37.670;2024-03-08T11:14:46;11.23;;;8.05;;
34200;SDS011;20469;55.638;37.670;2024-03-08T11:18:01;12.05;;;8.15;;
34200;SDS011;20469;55.638;37.670;2024-03-08T11:22:52;12.10;;;8.38;;
34200;SDS011;20469;55.638;37.670;2024-03-08T11:25:34;14.15;;;9.25;;
34200;SDS011;20469;55.638;37.670;2024-03-08T11:28:17;12.40;;;8.88;;
34200;SDS011;20469;55.638;37.670;2024-03-08T11:30:47;14.77;;;8.88;;
34200;SDS011;20469;55.638;37.670;2024-03-08T11:33:39;13.55;;;9.75;;
34200;SDS011;20469;55.638;37.670;2024-03-08T11:36:10;11.15;;;8.45;;
34200;SDS011;20469;55.638;37.670;2024-03-08T11:38:43;11.75;;;8.52;;
34200;SDS011;20469;55.638;37.670;2024-03-08T11:41:12;12.80;;;8.73;;
34200;SDS011;20469;55.638;37.670;2024-03-08T11:43:45;11.70;;;9.10;;
34200;SDS011;20469;55.638;37.670;2024-03-08T11:46:14;14.27;;;8.25;;
34200;SDS011;20469;55.638;37.670;2024-03-08T11:48:44;12.82;;;8.63;;
34200;SDS011;20469;55.638;37.670;2024-03-08T11:51:12;11.57;;;8.38;;
34200;SDS011;20469;55.638;37.670;2024-03-08T11:53:40;11.38;;;8.40;;
34200;SDS011;20469;55.638;37.670;2024-03-08T11:56:13;11.77;;;8.63;;
34200;SDS011;20469;55.638;37.670;2024-03-08T11:58:51;12.38;;;8.35;;
34200;SDS011;20469;55.638;37.670;2024-03-08T12:01:20;12.27;;;8.45;;
34200;SDS011;20469;55.638;37.670;2024-03-08T12:03:53;9.50;;;7.20;;
34200;SDS011;20469;55.638;37.670;2024-03-08T12:06:26;10.10;;;7.90;;
34200;SDS011;20469;55.638;37.670;2024-03-08T12:08:55;11.95;;;9.18;;
34200;SDS011;20469;55.638;37.670;2024-03-08T12:11:23;11.88;;;8.63;;
34200;SDS011;20469;55.638;37.670;2024-03-08T12:13:55;11.32;;;8.27;;
34200;SDS011;20469;55.638;37.670;2024-03-08T12:16:25;12.50;;;8.23;;
34200;SDS011;20469;55.638;37.670;2024-03-08T12:18:54;13.30;;;8.50;;
34200;SDS011;20469;55.638;37.670;2024-03-08T12:21:22;13.55;;;8.40;;
34200;SDS011;20469;55.638;37.670;2024-03-08T12:24:04;11.95;;;8.45;;
34200;SDS011;20469;55.638;37.670;2024-03-08T12:26:36;12.45;;;8.98;;
34200;SDS011;20469;55.638;37.670;2024-03-08T12:31:47;15.23;;;9.20;;
34200;SDS011;20469;55.638;37.670;2024-03-08T12:34:15;12.88;;;8.38;;
34200;SDS011;20469;55.638;37.670;2024-03-08T12:36:48;9.93;;;8.02;;
34200;SDS011;20469;55.638;37.670;2024-03-08T12:39:19;11.63;;;8.15;;
34200;SDS011;20469;55.638;37.670;2024-03-08T12:41:54;11.02;;;7.55;;
34200;SDS011;20469;55.638;37.670;2024-03-08T12:44:24;9.98;;;7.82;;
34200;SDS011;20469;55.638;37.670;2024-03-08T12:46:52;13.52;;;7.85;;
34200;SDS011;20469;55.638;37.670;2024-03-08T12:49:21;10.02;;;8.00;;
34200;SDS011;20469;55.638;37.670;2024-03-08T12:51:49;9.15;;;7.25;;
34200;SDS011;20469;55.638;37.670;2024-03-08T12:54:19;10.18;;;7.55;;
34200;SDS011;20469;55.638;37.670;2024-03-08T12:56:51;9.75;;;7.28;;
34200;SDS011;20469;55.638;37.670;2024-03-08T12:59:21;11.50;;;7.68;;
34200;SDS011;20469;55.638;37.670;2024-03-08T13:01:51;11.73;;;7.75;;
34200;SDS011;20469;55.638;37.670;2024-03-08T13:04:21;12.73;;;8.23;;
34200;SDS011;20469;55.638;37.670;2024-03-08T13:06:49;15.82;;;8.60;;
34200;SDS011;20469;55.638;37.670;2024-03-08T13:09:21;8.15;;;5.90;;
34200;SDS011;20469;55.638;37.670;2024-03-08T13:11:49;8.60;;;6.60;;
34200;SDS011;20469;55.638;37.670;2024-03-08T13:14:17;7.38;;;6.10;;
34200;SDS011;20469;55.638;37.670;2024-03-08T13:16:45;8.48;;;6.10;;
34200;SDS011;20469;55.638;37.670;2024-03-08T13:19:15;6.57;;;5.53;;
34200;SDS011;20469;55.638;37.670;2024-03-08T13:21:44;7.95;;;6.40;;
34200;SDS011;20469;55.638;37.670;2024-03-08T13:24:16;6.70;;;5.60;;
34200;SDS011;20469;55.638;37.670;2024-03-08T13:26:46;9.13;;;6.05;;
34200;SDS011;20469;55.638;37.670;2024-03-08T13:29:14;8.40;;;5.97;;
34200;SDS011;20469;55.638;37.670;2024-03-08T13:31:42;8.68;;;5.95;;
34200;SDS011;20469;55.638;37.670;2024-03-08T13:34:10;9.02;;;6.20;;
34200;SDS011;20469;55.638;37.670;2024-03-08T13:36:38;11.10;;;6.28;;
34200;SDS011;20469;55.638;37.670;2024-03-08T13:39:11;9.23;;;5.47;;
34200;SDS011;20469;55.638;37.670;2024-03-08T13:41:42;9.48;;;6.15;;
34200;SDS011;20469;55.638;37.670;2024-03-08T13:44:11;10.18;;;5.80;;
34200;SDS011;20469;55.638;37.670;2024-03-08T13:46:39;7.80;;;6.07;;
34200;SDS011;20469;55.638;37.670;2024-03-08T13:49:07;7.47;;;5.53;;
34200;SDS011;20469;55.638;37.670;2024-03-08T13:51:36;8.63;;;5.93;;
34200;SDS011;20469;55.638;37.670;2024-03-08T13:54:05;9.40;;;5.88;;
34200;SDS011;20469;55.638;37.670;2024-03-08T13:56:34;7.60;;;5.72;;
34200;SDS011;20469;55.638;37.670;2024-03-08T13:59:02;9.63;;;6.30;;
34200;SDS011;20469;55.638;37.670;2024-03-08T14:01:30;8.45;;;4.65;;
34200;SDS011;20469;55.638;37.670;2024-03-08T14:03:58;8.98;;;5.53;;
34200;SDS011;20469;55.638;37.670;2024-03-08T14:06:26;8.38;;;5.68;;
34200;SDS011;20469;55.638;37.670;2024-03-08T14:08:54;6.65;;;5.60;;
34200;SDS011;20469;55.638;37.670;2024-03-08T14:11:23;6.38;;;4.93;;
34200;SDS011;20469;55.638;37.670;2024-03-08T14:13:52;6.78;;;5.32;;
34200;SDS011;20469;55.638;37.670;2024-03-08T14:16:20;6.85;;;4.70;;
34200;SDS011;20469;55.638;37.670;2024-03-08T14:18:48;8.40;;;5.10;;
34200;SDS011;20469;55.638;37.670;2024-03-08T14:21:16;6.13;;;5.00;;
34200;SDS011;20469;55.638;37.670;2024-03-08T14:23:44;6.10;;;4.97;;
34200;SDS011;20469;55.638;37.670;2024-03-08T14:26:12;9.10;;;5.18;;
34200;SDS011;20469;55.638;37.670;2024-03-08T14:28:41;7.53;;;5.43;;
34200;SDS011;20469;55.638;37.670;2024-03-08T14:31:09;6.25;;;5.40;;
34200;SDS011;20469;55.638;37.670;2024-03-08T14:33:38;8.48;;;5.50;;
34200;SDS011;20469;55.638;37.670;2024-03-08T14:36:08;8.07;;;5.47;;
34200;SDS011;20469;55.638;37.670;2024-03-08T14:38:41;7.45;;;5.38;;
34200;SDS011;20469;55.638;37.670;2024-03-08T14:41:08;9.65;;;5.50;;
34200;SDS011;20469;55.638;37.670;2024-03-08T14:43:37;7.65;;;5.35;;
34200;SDS011;20469;55.638;37.670;2024-03-08T14:46:04;6.32;;;4.88;;
34200;SDS011;20469;55.638;37.670;2024-03-08T14:48:32;7.93;;;5.93;;
34200;SDS011;20469;55.638;37.670;2024-03-08T14:51:04;8.27;;;5.18;;
34200;SDS011;20469;55.638;37.670;2024-03-08T14:53:36;9.38;;;5.22;;
34200;SDS011;20469;55.638;37.670;2024-03-08T14:56:07;7.95;;;5.40;;